createdAt,value
2023-03-21T00:01:06.467Z,2.80
2023-03-21T00:04:04.078Z,2.55
2023-03-21T00:07:00.979Z,2.58
2023-03-21T00:10:08.683Z,3.90
2023-03-21T00:13:13.364Z,4.25
2023-03-21T00:16:19.075Z,3.78
2023-03-21T00:19:20.875Z,3.47
2023-03-21T00:22:17.747Z,4.43
2023-03-21T00:25:14.630Z,3.83
2023-03-21T00:28:11.535Z,2.72
2023-03-21T00:31:09.692Z,2.58
2023-03-21T00:34:06.642Z,2.63
2023-03-21T00:37:03.832Z,3.13
2023-03-21T00:40:01.367Z,2.88
2023-03-21T00:42:58.446Z,2.97
2023-03-21T00:45:56.224Z,2.50
2023-03-21T00:48:54.108Z,2.40
2023-03-21T00:51:51.394Z,2.55
2023-03-21T00:54:48.599Z,2.58
2023-03-21T00:57:52.834Z,2.38
2023-03-21T01:00:53.057Z,2.33
2023-03-21T01:03:51.150Z,2.38
2023-03-21T01:06:48.797Z,2.53
2023-03-21T01:09:45.635Z,2.28
2023-03-21T01:12:42.483Z,2.35
2023-03-21T01:15:51.562Z,2.42
2023-03-21T01:18:48.674Z,2.55
2023-03-21T01:21:45.522Z,2.40
2023-03-21T01:24:52.370Z,2.38
2023-03-21T01:27:51.448Z,2.72
2023-03-21T01:30:51.872Z,2.45
2023-03-21T01:33:48.971Z,2.38
2023-03-21T01:36:46.126Z,2.50
2023-03-21T01:39:43.094Z,7.25
2023-03-21T01:42:40.282Z,5.95
2023-03-21T01:46:23.928Z,6.03
2023-03-21T01:49:36.009Z,2.72
2023-03-21T01:52:39.006Z,2.22
2023-03-21T01:55:37.526Z,2.60
2023-03-21T01:58:35.787Z,2.42
2023-03-21T02:01:34.808Z,3.90
2023-03-21T02:04:31.658Z,2.65
2023-03-21T02:07:35.839Z,2.78
2023-03-21T02:10:33.260Z,2.97
2023-03-21T02:13:30.829Z,2.80
2023-03-21T02:16:48.458Z,2.20
2023-03-21T02:20:00.698Z,2.03
2023-03-21T02:23:28.187Z,2.15
2023-03-21T02:26:52.445Z,2.22
2023-03-21T02:30:26.578Z,2.72
2023-03-21T02:34:07.181Z,2.35
2023-03-21T02:37:37.643Z,2.45
2023-03-21T02:41:03.401Z,2.15
2023-03-21T02:44:31.126Z,2.78
2023-03-21T02:47:47.565Z,2.83
2023-03-21T02:50:52.606Z,2.60
2023-03-21T02:54:38.367Z,2.60
2023-03-21T02:57:42.570Z,2.53
2023-03-21T03:00:42.871Z,2.45
2023-03-21T03:03:39.758Z,2.88
2023-03-21T03:07:17.826Z,2.63
2023-03-21T03:10:48.109Z,2.42
2023-03-21T03:18:01.019Z,2.45
2023-03-21T03:21:44.086Z,2.33
2023-03-21T03:24:54.581Z,2.35
2023-03-21T03:27:52.933Z,2.28
2023-03-21T03:31:07.603Z,2.35
2023-03-21T03:34:11.681Z,2.55
2023-03-21T03:37:16.794Z,2.08
2023-03-21T03:40:37.522Z,2.65
2023-03-21T03:46:47.448Z,2.22
2023-03-21T03:50:00.667Z,2.45
2023-03-21T03:53:22.007Z,2.30
2023-03-21T03:56:19.933Z,3.03
2023-03-21T03:59:19.429Z,2.50
2023-03-21T04:02:17.353Z,2.25
2023-03-21T04:05:14.679Z,2.25
2023-03-21T04:08:11.513Z,2.65
2023-03-21T04:11:08.675Z,2.50
2023-03-21T04:14:05.599Z,2.45
2023-03-21T04:17:02.438Z,2.53
2023-03-21T04:20:10.781Z,2.00
2023-03-21T04:23:09.819Z,2.53
2023-03-21T04:26:07.379Z,2.08
2023-03-21T04:29:05.281Z,2.47
2023-03-21T04:32:02.191Z,3.22
2023-03-21T04:34:59.881Z,2.40
2023-03-21T04:37:56.864Z,2.58
2023-03-21T04:40:53.661Z,3.33
2023-03-21T04:43:51.872Z,2.67
2023-03-21T04:46:50.321Z,3.72
2023-03-21T04:49:50.110Z,4.07
2023-03-21T04:52:46.941Z,6.88
2023-03-21T04:55:43.750Z,6.72
2023-03-21T04:58:41.276Z,5.47
2023-03-21T05:01:38.093Z,4.97
2023-03-21T05:04:34.925Z,4.15
2023-03-21T05:07:32.781Z,4.72
2023-03-21T05:10:29.610Z,5.53
2023-03-21T05:13:26.441Z,5.00
2023-03-21T05:16:26.830Z,3.78
2023-03-21T05:19:34.828Z,4.97
2023-03-21T05:22:40.336Z,4.43
2023-03-21T05:25:40.343Z,4.38
2023-03-21T05:28:37.349Z,4.00
2023-03-21T05:31:34.451Z,3.10
2023-03-21T05:34:32.161Z,3.45
2023-03-21T05:37:29.202Z,3.50
2023-03-21T05:40:26.006Z,3.00
2023-03-21T05:43:22.831Z,2.90
2023-03-21T05:46:19.709Z,3.40
2023-03-21T05:49:16.520Z,2.63
2023-03-21T05:52:13.451Z,3.17
2023-03-21T05:55:10.322Z,3.35
2023-03-21T05:58:07.184Z,3.30
2023-03-21T06:01:04.215Z,3.13
2023-03-21T06:04:01.189Z,2.95
2023-03-21T06:06:58.227Z,2.83
2023-03-21T06:09:55.165Z,2.80
2023-03-21T06:12:51.978Z,3.58
2023-03-21T06:15:48.837Z,2.92
2023-03-21T06:18:45.721Z,2.95
2023-03-21T06:21:42.961Z,2.85
2023-03-21T06:24:39.794Z,2.90
2023-03-21T06:27:37.480Z,3.78
2023-03-21T06:30:34.297Z,5.28
2023-03-21T06:33:31.435Z,8.45
2023-03-21T06:36:28.259Z,8.38
2023-03-21T06:39:26.279Z,10.45
2023-03-21T06:42:23.130Z,9.82
2023-03-21T06:45:20.225Z,15.82
2023-03-21T06:48:17.087Z,3.55
2023-03-21T06:51:16.016Z,2.63
2023-03-21T06:54:14.539Z,4.47
2023-03-21T06:57:11.536Z,2.40
2023-03-21T07:00:09.519Z,11.35
2023-03-21T07:03:06.990Z,10.23
2023-03-21T07:06:11.844Z,7.80
2023-03-21T07:09:08.784Z,4.72
2023-03-21T07:12:05.769Z,4.57
2023-03-21T07:15:04.426Z,4.65
2023-03-21T07:18:01.256Z,5.85
2023-03-21T07:20:58.655Z,5.05
2023-03-21T07:23:55.480Z,2.78
2023-03-21T07:26:52.293Z,4.00
2023-03-21T07:29:50.444Z,5.72
2023-03-21T07:32:47.685Z,3.85
2023-03-21T07:35:44.542Z,3.65
2023-03-21T07:38:43.384Z,3.63
2023-03-21T07:41:40.338Z,5.20
2023-03-21T07:44:37.170Z,5.65
2023-03-21T07:47:34.510Z,6.00
2023-03-21T07:50:31.555Z,11.48
2023-03-21T07:53:28.438Z,12.48
2023-03-21T07:56:25.328Z,9.20
2023-03-21T07:59:22.387Z,14.13
2023-03-21T08:02:19.489Z,6.15
2023-03-21T08:05:19.220Z,6.70
2023-03-21T08:08:16.089Z,5.50
2023-03-21T08:11:13.449Z,5.15
2023-03-21T08:14:10.360Z,4.15
2023-03-21T08:17:09.459Z,3.15
2023-03-21T08:20:09.947Z,3.15
2023-03-21T08:23:06.842Z,3.83
2023-03-21T08:26:03.769Z,3.17
2023-03-21T08:29:00.901Z,3.25
2023-03-21T08:31:58.205Z,3.70
2023-03-21T08:34:58.747Z,4.03
2023-03-21T08:37:55.657Z,3.17
2023-03-21T08:40:52.489Z,4.35
2023-03-21T08:43:49.443Z,4.28
2023-03-21T08:46:46.315Z,2.90
2023-03-21T08:49:45.698Z,4.15
2023-03-21T08:52:42.912Z,3.55
2023-03-21T08:55:40.059Z,2.78
2023-03-21T08:58:37.786Z,2.90
2023-03-21T09:01:34.734Z,4.50
2023-03-21T09:04:31.902Z,2.50
2023-03-21T09:07:28.753Z,2.63
2023-03-21T09:10:25.751Z,2.40
2023-03-21T09:13:23.512Z,2.53
2023-03-21T09:16:20.416Z,3.13
2023-03-21T09:19:18.008Z,2.55
2023-03-21T09:22:17.336Z,2.58
2023-03-21T09:25:16.167Z,2.75
2023-03-21T09:28:14.087Z,3.08
2023-03-21T09:31:12.291Z,2.85
2023-03-21T09:34:09.847Z,3.05
2023-03-21T09:37:13.310Z,3.50
2023-03-21T09:40:53.844Z,2.38
2023-03-21T09:44:30.446Z,3.20
2023-03-21T09:47:34.850Z,2.90
2023-03-21T09:50:36.918Z,2.88
2023-03-21T09:53:40.097Z,2.65
2023-03-21T09:56:41.021Z,2.80
2023-03-21T09:59:42.941Z,2.50
2023-03-21T10:02:47.214Z,2.50
2023-03-21T10:05:45.907Z,2.75
2023-03-21T10:08:47.076Z,2.83
2023-03-21T10:11:58.729Z,3.28
2023-03-21T10:14:58.738Z,2.85
2023-03-21T10:18:07.973Z,2.60
2023-03-21T10:21:05.924Z,2.80
2023-03-21T10:24:02.865Z,2.78
2023-03-21T10:27:01.675Z,2.70
2023-03-21T10:30:00.923Z,2.63
2023-03-21T10:33:04.982Z,2.53
2023-03-21T10:36:08.237Z,2.50
2023-03-21T10:39:37.772Z,2.50
2023-03-21T10:42:36.645Z,2.53
2023-03-21T10:45:35.656Z,2.63
2023-03-21T10:48:38.339Z,2.78
2023-03-21T10:51:39.062Z,2.88
2023-03-21T10:54:36.143Z,2.35
2023-03-21T10:57:33.377Z,1.90
2023-03-21T11:00:37.694Z,3.17
2023-03-21T11:03:43.659Z,4.03
2023-03-21T11:06:50.699Z,3.33
2023-03-21T11:09:54.962Z,2.55
2023-03-21T11:12:57.805Z,2.58
2023-03-21T11:16:05.707Z,4.55
2023-03-21T11:19:32.400Z,2.38
2023-03-21T11:22:39.280Z,3.55
2023-03-21T11:25:41.504Z,2.63
2023-03-21T11:28:44.835Z,4.68
2023-03-21T11:31:42.043Z,2.50
2023-03-21T11:34:53.262Z,8.52
2023-03-21T11:37:56.438Z,5.75
2023-03-21T11:40:59.276Z,4.97
2023-03-21T11:43:57.221Z,3.50
2023-03-21T11:46:55.114Z,2.50
2023-03-21T11:49:58.432Z,2.75
2023-03-21T11:53:42.651Z,1.88
2023-03-21T11:56:51.553Z,2.97
2023-03-21T12:00:15.853Z,2.25
2023-03-21T12:03:48.778Z,3.58
2023-03-21T12:07:00.695Z,2.55
2023-03-21T12:10:34.131Z,3.38
2023-03-21T12:14:00.139Z,3.40
2023-03-21T12:17:42.476Z,2.13
2023-03-21T12:21:04.284Z,2.30
2023-03-21T12:24:23.317Z,3.10
2023-03-21T12:27:35.618Z,2.83
2023-03-21T12:30:49.742Z,3.03
2023-03-21T12:34:08.181Z,3.03
2023-03-21T12:37:39.170Z,2.28
2023-03-21T12:41:04.137Z,2.75
2023-03-21T12:44:17.655Z,2.85
2023-03-21T12:47:22.494Z,3.80
2023-03-21T12:50:37.339Z,2.45
2023-03-21T12:53:49.788Z,2.28
2023-03-21T12:57:12.846Z,2.47
2023-03-21T13:00:26.362Z,2.25
2023-03-21T13:03:46.672Z,2.53
2023-03-21T13:06:46.559Z,2.25
2023-03-21T13:09:43.852Z,2.23
2023-03-21T13:13:18.230Z,2.40
2023-03-21T13:16:46.271Z,2.50
2023-03-21T13:19:52.649Z,3.05
2023-03-21T13:22:49.630Z,3.20
2023-03-21T13:25:50.346Z,2.72
2023-03-21T13:31:52.078Z,3.50
2023-03-21T13:35:04.980Z,2.63
2023-03-21T13:38:12.756Z,3.08
2023-03-21T13:41:17.108Z,2.97
2023-03-21T13:44:33.118Z,2.63
2023-03-21T13:47:53.081Z,3.40
2023-03-21T13:51:04.741Z,3.03
2023-03-21T13:54:07.478Z,4.38
2023-03-21T13:57:30.418Z,3.22
2023-03-21T14:00:31.135Z,3.88
2023-03-21T14:07:01.839Z,3.20
2023-03-21T14:10:06.591Z,3.03
2023-03-21T14:13:06.283Z,3.97
2023-03-21T14:16:14.385Z,3.20
2023-03-21T14:19:12.302Z,3.17
2023-03-21T14:22:13.619Z,3.00
2023-03-21T14:25:17.518Z,3.30
2023-03-21T14:28:22.891Z,3.08
2023-03-21T14:31:21.090Z,4.45
2023-03-21T14:34:18.884Z,2.97
2023-03-21T14:37:38.887Z,3.05
2023-03-21T14:40:36.205Z,2.47
2023-03-21T14:43:36.160Z,2.35
2023-03-21T14:46:33.872Z,3.13
2023-03-21T14:49:34.639Z,3.03
2023-03-21T14:55:30.533Z,2.53
2023-03-21T14:58:29.062Z,3.60
2023-03-21T15:01:32.201Z,5.32
2023-03-21T15:04:31.819Z,3.50
2023-03-21T15:07:34.725Z,3.40
2023-03-21T15:10:32.305Z,3.33
2023-03-21T15:13:45.436Z,4.20
2023-03-21T15:16:42.518Z,4.30
2023-03-21T15:19:43.709Z,3.85
2023-03-21T15:22:49.005Z,4.57
2023-03-21T15:25:46.109Z,4.40
2023-03-21T15:28:51.445Z,4.75
2023-03-21T15:31:48.866Z,4.00
2023-03-21T15:34:46.583Z,5.70
2023-03-21T15:37:51.773Z,5.50
2023-03-21T15:40:48.681Z,3.80
2023-03-21T15:44:13.512Z,4.32
2023-03-21T15:47:14.197Z,5.22
2023-03-21T15:53:24.335Z,3.17
2023-03-21T15:56:22.981Z,3.10
2023-03-21T15:59:19.944Z,3.50
2023-03-21T16:02:24.157Z,4.25
2023-03-21T16:05:33.702Z,3.30
2023-03-21T16:08:36.730Z,3.53
2023-03-21T16:11:43.967Z,3.08
2023-03-21T16:14:42.647Z,2.88
2023-03-21T16:17:41.105Z,3.38
2023-03-21T16:20:44.993Z,2.83
2023-03-21T16:23:42.206Z,1.98
2023-03-21T16:26:46.093Z,2.00
2023-03-21T16:29:43.000Z,1.77
2023-03-21T16:32:40.185Z,2.17
2023-03-21T16:35:37.017Z,2.00
2023-03-21T16:38:34.008Z,2.15
2023-03-21T16:41:30.976Z,2.20
2023-03-21T16:44:28.084Z,7.13
2023-03-21T16:47:24.991Z,3.22
2023-03-21T16:50:39.878Z,7.30
2023-03-21T16:53:36.906Z,2.78
2023-03-21T16:56:44.808Z,2.38
2023-03-21T16:59:42.763Z,1.90
2023-03-21T17:02:39.609Z,1.90
2023-03-21T17:05:36.436Z,2.17
2023-03-21T17:08:33.320Z,2.05
2023-03-21T17:11:35.962Z,2.20
2023-03-21T17:14:32.777Z,2.67
2023-03-21T17:17:29.597Z,1.92
2023-03-21T17:20:35.240Z,2.13
2023-03-21T17:23:32.092Z,2.10
2023-03-21T17:26:29.464Z,2.10
2023-03-21T17:29:26.330Z,2.20
2023-03-21T17:32:23.153Z,2.65
2023-03-21T17:35:21.994Z,2.28
2023-03-21T17:38:18.933Z,2.47
2023-03-21T17:41:18.681Z,2.20
2023-03-21T17:44:15.920Z,2.33
2023-03-21T17:47:13.096Z,2.78
2023-03-21T17:50:19.498Z,2.58
2023-03-21T17:53:16.334Z,2.50
2023-03-21T17:56:25.813Z,2.47
2023-03-21T17:59:23.565Z,2.88
2023-03-21T18:02:20.660Z,3.60
2023-03-21T18:05:18.259Z,3.20
2023-03-21T18:08:15.517Z,3.03
2023-03-21T18:11:14.034Z,2.67
2023-03-21T18:14:17.684Z,3.38
2023-03-21T18:17:19.348Z,3.33
2023-03-21T18:23:18.673Z,3.03
2023-03-21T18:26:22.822Z,3.05
2023-03-21T18:32:38.001Z,3.38
2023-03-21T18:35:35.097Z,3.17
2023-03-21T18:38:31.965Z,2.78
2023-03-21T18:41:29.356Z,3.00
2023-03-21T18:44:26.622Z,3.47
2023-03-21T18:47:23.612Z,3.95
2023-03-21T18:50:21.049Z,4.30
2023-03-21T18:53:17.886Z,3.63
2023-03-21T18:56:57.671Z,3.53
2023-03-21T18:59:34.621Z,3.88
2023-03-21T19:02:31.911Z,6.72
2023-03-21T19:05:29.184Z,6.05
2023-03-21T19:08:26.030Z,7.95
2023-03-21T19:11:23.688Z,5.75
2023-03-21T19:14:20.600Z,5.80
2023-03-21T19:18:15.746Z,4.38
2023-03-21T19:20:34.901Z,4.32
2023-03-21T19:23:56.366Z,4.53
2023-03-21T19:26:49.301Z,4.47
2023-03-21T19:29:59.788Z,5.00
2023-03-21T19:33:03.128Z,3.70
2023-03-21T19:36:15.390Z,3.88
2023-03-21T19:39:19.355Z,4.00
2023-03-21T19:42:17.774Z,3.53
2023-03-21T19:45:14.657Z,3.85
2023-03-21T19:48:11.827Z,3.97
2023-03-21T19:51:27.754Z,3.80
2023-03-21T19:54:25.752Z,3.58
2023-03-21T19:57:24.940Z,5.72
2023-03-21T20:00:22.302Z,4.00
2023-03-21T20:03:22.088Z,3.90
2023-03-21T20:06:19.589Z,4.07
2023-03-21T20:09:50.829Z,5.00
2023-03-21T20:12:34.130Z,3.45
2023-03-21T20:15:31.142Z,3.83
2023-03-21T20:18:28.028Z,3.50
2023-03-21T20:21:27.250Z,3.10
2023-03-21T20:24:24.098Z,3.05
2023-03-21T20:27:25.040Z,2.95
2023-03-21T20:30:22.069Z,2.90
2023-03-21T20:33:19.530Z,3.33
2023-03-21T20:36:38.033Z,3.40
2023-03-21T20:39:35.289Z,3.60
2023-03-21T20:42:35.360Z,3.50
2023-03-21T20:45:33.279Z,3.67
2023-03-21T20:48:30.736Z,3.10
2023-03-21T20:54:45.672Z,3.00
2023-03-21T20:57:42.557Z,3.00
2023-03-21T21:00:39.974Z,2.67
2023-03-21T21:03:41.135Z,2.35
2023-03-21T21:06:38.882Z,2.78
2023-03-21T21:09:35.719Z,2.55
2023-03-21T21:12:32.531Z,2.58
2023-03-21T21:15:29.373Z,2.60
2023-03-21T21:18:26.332Z,2.80
2023-03-21T21:21:23.161Z,5.55
2023-03-21T21:24:20.181Z,2.72
2023-03-21T21:27:17.048Z,3.20
2023-03-21T21:30:14.226Z,3.53
2023-03-21T21:33:11.142Z,5.40
2023-03-21T21:36:10.142Z,5.50
2023-03-21T21:39:07.531Z,3.40
2023-03-21T21:42:05.566Z,2.55
2023-03-21T21:45:02.450Z,3.38
2023-03-21T21:47:59.315Z,3.83
2023-03-21T21:50:56.183Z,3.10
2023-03-21T21:53:55.901Z,4.32
2023-03-21T21:56:54.079Z,5.60
2023-03-21T21:59:53.891Z,1.65
2023-03-21T22:02:52.122Z,3.03
2023-03-21T22:05:50.466Z,3.20
2023-03-21T22:08:47.304Z,2.97
2023-03-21T22:11:44.111Z,3.30
2023-03-21T22:14:40.970Z,3.65
2023-03-21T22:17:39.954Z,4.07
2023-03-21T22:20:37.359Z,4.72
2023-03-21T22:23:34.523Z,4.82
2023-03-21T22:26:31.456Z,5.38
2023-03-21T22:29:28.884Z,6.38
2023-03-21T22:32:25.702Z,6.70
2023-03-21T22:35:22.704Z,5.50
2023-03-21T22:38:24.188Z,5.40
2023-03-21T22:41:21.224Z,6.53
2023-03-21T22:44:18.150Z,8.77
2023-03-21T22:47:15.438Z,9.60
2023-03-21T22:50:12.322Z,8.18
2023-03-21T22:53:09.225Z,6.75
2023-03-21T22:56:06.687Z,5.57
2023-03-21T22:59:03.583Z,4.95
2023-03-21T23:02:00.559Z,5.30
2023-03-21T23:04:57.379Z,7.55
2023-03-21T23:07:54.191Z,7.40
2023-03-21T23:10:51.612Z,6.05
2023-03-21T23:13:53.625Z,3.90
2023-03-21T23:17:00.079Z,3.85
2023-03-21T23:19:57.004Z,4.35
2023-03-21T23:22:54.602Z,5.10
2023-03-21T23:25:52.168Z,5.53
2023-03-21T23:28:49.843Z,6.15
2023-03-21T23:31:46.921Z,6.32
2023-03-21T23:34:44.179Z,19.55
2023-03-21T23:37:52.191Z,6.30
2023-03-21T23:40:49.284Z,7.45
2023-03-21T23:43:47.002Z,9.20
2023-03-21T23:46:43.809Z,6.15
2023-03-21T23:49:40.832Z,6.40
2023-03-21T23:52:38.244Z,8.18
2023-03-21T23:55:37.805Z,7.30
2023-03-21T23:58:34.617Z,6.38
